sensor_id;sensor_type;location;lat;lon;timestamp;P1;durP1;ratioP1;P2;durP2;ratioP2
21281;SDS011;10800;53.096;18.328;2023-08-08T00:05:15;6.57;;;1.20;;
21281;SDS011;10800;53.096;18.328;2023-08-08T00:10:23;3.87;;;1.00;;
21281;SDS011;10800;53.096;18.328;2023-08-08T00:15:36;3.57;;;1.63;;
21281;SDS011;10800;53.096;18.328;2023-08-08T00:26:07;6.03;;;1.00;;
21281;SDS011;10800;53.096;18.328;2023-08-08T00:31:16;8.00;;;1.53;;
21281;SDS011;10800;53.096;18.328;2023-08-08T00:36:32;7.53;;;1.47;;
21281;SDS011;10800;53.096;18.328;2023-08-08T00:41:47;17.30;;;2.17;;
21281;SDS011;10800;53.096;18.328;2023-08-08T00:47:01;8.47;;;1.43;;
21281;SDS011;10800;53.096;18.328;2023-08-08T00:52:09;5.97;;;1.60;;
21281;SDS011;10800;53.096;18.328;2023-08-08T00:57:39;2.97;;;1.27;;
21281;SDS011;10800;53.096;18.328;2023-08-08T01:02:50;3.73;;;1.50;;
21281;SDS011;10800;53.096;18.328;2023-08-08T01:08:04;4.03;;;1.13;;
21281;SDS011;10800;53.096;18.328;2023-08-08T01:13:33;3.07;;;1.43;;
21281;SDS011;10800;53.096;18.328;2023-08-08T01:18:44;5.63;;;1.20;;
21281;SDS011;10800;53.096;18.328;2023-08-08T01:23:56;7.47;;;1.37;;
21281;SDS011;10800;53.096;18.328;2023-08-08T01:29:03;6.53;;;1.40;;
21281;SDS011;10800;53.096;18.328;2023-08-08T01:34:11;6.03;;;1.37;;
21281;SDS011;10800;53.096;18.328;2023-08-08T01:39:22;5.97;;;2.00;;
21281;SDS011;10800;53.096;18.328;2023-08-08T01:44:38;3.63;;;1.50;;
21281;SDS011;10800;53.096;18.328;2023-08-08T01:50:31;8.90;;;1.70;;
21281;SDS011;10800;53.096;18.328;2023-08-08T01:55:46;3.97;;;1.37;;
21281;SDS011;10800;53.096;18.328;2023-08-08T02:00:57;3.67;;;1.20;;
21281;SDS011;10800;53.096;18.328;2023-08-08T02:06:08;1.73;;;0.97;;
21281;SDS011;10800;53.096;18.328;2023-08-08T02:11:19;4.77;;;1.50;;
21281;SDS011;10800;53.096;18.328;2023-08-08T02:21:58;5.10;;;1.73;;
21281;SDS011;10800;53.096;18.328;2023-08-08T02:27:07;8.77;;;1.03;;
21281;SDS011;10800;53.096;18.328;2023-08-08T02:32:25;5.30;;;1.20;;
21281;SDS011;10800;53.096;18.328;2023-08-08T02:37:39;3.47;;;1.43;;
21281;SDS011;10800;53.096;18.328;2023-08-08T02:42:47;1.70;;;1.00;;
21281;SDS011;10800;53.096;18.328;2023-08-08T02:48:12;8.03;;;1.63;;
21281;SDS011;10800;53.096;18.328;2023-08-08T02:53:21;10.80;;;2.80;;
21281;SDS011;10800;53.096;18.328;2023-08-08T02:58:45;4.23;;;1.53;;
21281;SDS011;10800;53.096;18.328;2023-08-08T03:03:50;1.77;;;0.90;;
21281;SDS011;10800;53.096;18.328;2023-08-08T03:09:21;6.23;;;2.03;;
21281;SDS011;10800;53.096;18.328;2023-08-08T03:14:31;6.17;;;1.37;;
21281;SDS011;10800;53.096;18.328;2023-08-08T03:19:45;1.63;;;1.10;;
21281;SDS011;10800;53.096;18.328;2023-08-08T03:24:53;5.03;;;1.30;;
21281;SDS011;10800;53.096;18.328;2023-08-08T03:30:00;1.93;;;0.90;;
21281;SDS011;10800;53.096;18.328;2023-08-08T03:40:38;3.37;;;1.50;;
21281;SDS011;10800;53.096;18.328;2023-08-08T03:45:52;2.30;;;1.00;;
21281;SDS011;10800;53.096;18.328;2023-08-08T03:51:02;3.23;;;1.10;;
21281;SDS011;10800;53.096;18.328;2023-08-08T03:56:08;3.10;;;1.03;;
21281;SDS011;10800;53.096;18.328;2023-08-08T04:01:17;2.77;;;1.30;;
21281;SDS011;10800;53.096;18.328;2023-08-08T04:06:29;5.77;;;0.97;;
21281;SDS011;10800;53.096;18.328;2023-08-08T04:17:19;7.00;;;1.47;;
21281;SDS011;10800;53.096;18.328;2023-08-08T04:22:26;2.50;;;1.30;;
21281;SDS011;10800;53.096;18.328;2023-08-08T04:27:35;5.37;;;1.43;;
21281;SDS011;10800;53.096;18.328;2023-08-08T04:32:48;2.70;;;1.20;;
21281;SDS011;10800;53.096;18.328;2023-08-08T04:37:53;2.20;;;1.10;;
21281;SDS011;10800;53.096;18.328;2023-08-08T04:43:05;2.27;;;1.17;;
21281;SDS011;10800;53.096;18.328;2023-08-08T04:48:16;1.63;;;1.07;;
21281;SDS011;10800;53.096;18.328;2023-08-08T04:53:21;3.50;;;0.70;;
21281;SDS011;10800;53.096;18.328;2023-08-08T04:58:30;4.00;;;0.80;;
21281;SDS011;10800;53.096;18.328;2023-08-08T05:03:37;5.33;;;0.87;;
21281;SDS011;10800;53.096;18.328;2023-08-08T05:08:45;2.20;;;1.30;;
21281;SDS011;10800;53.096;18.328;2023-08-08T05:13:50;7.97;;;1.30;;
21281;SDS011;10800;53.096;18.328;2023-08-08T05:19:03;7.60;;;1.67;;
21281;SDS011;10800;53.096;18.328;2023-08-08T05:24:09;1.80;;;0.93;;
21281;SDS011;10800;53.096;18.328;2023-08-08T05:29:19;6.63;;;1.17;;
21281;SDS011;10800;53.096;18.328;2023-08-08T05:34:24;4.03;;;1.20;;
21281;SDS011;10800;53.096;18.328;2023-08-08T05:39:32;5.40;;;1.00;;
21281;SDS011;10800;53.096;18.328;2023-08-08T05:44:41;6.10;;;1.53;;
21281;SDS011;10800;53.096;18.328;2023-08-08T05:49:50;5.63;;;1.63;;
21281;SDS011;10800;53.096;18.328;2023-08-08T05:54:56;1.90;;;1.40;;
21281;SDS011;10800;53.096;18.328;2023-08-08T06:00:06;2.07;;;1.07;;
21281;SDS011;10800;53.096;18.328;2023-08-08T06:05:16;1.67;;;0.87;;
21281;SDS011;10800;53.096;18.328;2023-08-08T06:10:24;1.63;;;0.90;;
21281;SDS011;10800;53.096;18.328;2023-08-08T06:15:31;12.37;;;1.33;;
21281;SDS011;10800;53.096;18.328;2023-08-08T06:20:42;4.90;;;1.30;;
21281;SDS011;10800;53.096;18.328;2023-08-08T06:25:48;4.40;;;1.27;;
21281;SDS011;10800;53.096;18.328;2023-08-08T06:30:53;3.13;;;1.13;;
21281;SDS011;10800;53.096;18.328;2023-08-08T06:35:59;1.83;;;1.00;;
21281;SDS011;10800;53.096;18.328;2023-08-08T06:41:05;4.43;;;1.40;;
21281;SDS011;10800;53.096;18.328;2023-08-08T06:46:10;2.37;;;1.00;;
21281;SDS011;10800;53.096;18.328;2023-08-08T06:51:21;4.60;;;0.67;;
21281;SDS011;10800;53.096;18.328;2023-08-08T06:56:29;2.50;;;0.87;;
21281;SDS011;10800;53.096;18.328;2023-08-08T07:01:35;2.07;;;1.00;;
21281;SDS011;10800;53.096;18.328;2023-08-08T07:06:44;1.87;;;1.13;;
21281;SDS011;10800;53.096;18.328;2023-08-08T07:11:50;4.13;;;1.00;;
21281;SDS011;10800;53.096;18.328;2023-08-08T07:16:56;4.73;;;1.13;;
21281;SDS011;10800;53.096;18.328;2023-08-08T07:22:02;1.60;;;0.90;;
21281;SDS011;10800;53.096;18.328;2023-08-08T07:27:10;3.23;;;1.47;;
21281;SDS011;10800;53.096;18.328;2023-08-08T07:32:18;2.13;;;0.90;;
21281;SDS011;10800;53.096;18.328;2023-08-08T07:37:24;2.77;;;0.90;;
21281;SDS011;10800;53.096;18.328;2023-08-08T07:42:31;1.13;;;0.80;;
21281;SDS011;10800;53.096;18.328;2023-08-08T07:47:45;1.17;;;0.83;;
21281;SDS011;10800;53.096;18.328;2023-08-08T07:52:53;9.07;;;1.07;;
21281;SDS011;10800;53.096;18.328;2023-08-08T07:58:02;1.77;;;0.90;;
21281;SDS011;10800;53.096;18.328;2023-08-08T08:03:10;3.30;;;1.27;;
21281;SDS011;10800;53.096;18.328;2023-08-08T08:08:17;4.73;;;1.03;;
21281;SDS011;10800;53.096;18.328;2023-08-08T08:13:32;1.70;;;0.97;;
21281;SDS011;10800;53.096;18.328;2023-08-08T08:18:38;0.77;;;0.70;;
21281;SDS011;10800;53.096;18.328;2023-08-08T08:23:45;3.60;;;1.10;;
21281;SDS011;10800;53.096;18.328;2023-08-08T08:28:51;1.67;;;0.93;;
21281;SDS011;10800;53.096;18.328;2023-08-08T08:33:57;4.63;;;1.07;;
21281;SDS011;10800;53.096;18.328;2023-08-08T08:39:02;1.23;;;0.80;;
21281;SDS011;10800;53.096;18.328;2023-08-08T08:44:08;2.73;;;0.93;;
21281;SDS011;10800;53.096;18.328;2023-08-08T08:49:16;1.30;;;0.80;;
21281;SDS011;10800;53.096;18.328;2023-08-08T08:54:24;2.93;;;1.20;;
21281;SDS011;10800;53.096;18.328;2023-08-08T08:59:30;3.50;;;1.10;;
21281;SDS011;10800;53.096;18.328;2023-08-08T09:04:36;2.63;;;1.00;;
21281;SDS011;10800;53.096;18.328;2023-08-08T09:09:42;2.00;;;0.97;;
21281;SDS011;10800;53.096;18.328;2023-08-08T09:14:48;1.73;;;0.90;;
21281;SDS011;10800;53.096;18.328;2023-08-08T09:19:57;3.77;;;0.93;;
21281;SDS011;10800;53.096;18.328;2023-08-08T09:25:02;4.43;;;0.97;;
21281;SDS011;10800;53.096;18.328;2023-08-08T09:30:09;1.53;;;0.83;;
21281;SDS011;10800;53.096;18.328;2023-08-08T09:35:15;5.43;;;1.00;;
21281;SDS011;10800;53.096;18.328;2023-08-08T09:40:23;6.50;;;1.10;;
21281;SDS011;10800;53.096;18.328;2023-08-08T09:45:39;2.23;;;0.97;;
21281;SDS011;10800;53.096;18.328;2023-08-08T09:50:57;1.80;;;1.20;;
21281;SDS011;10800;53.096;18.328;2023-08-08T09:56:04;1.93;;;0.97;;
21281;SDS011;10800;53.096;18.328;2023-08-08T10:01:11;1.50;;;1.30;;
21281;SDS011;10800;53.096;18.328;2023-08-08T10:06:18;2.30;;;0.87;;
21281;SDS011;10800;53.096;18.328;2023-08-08T10:11:25;4.33;;;1.50;;
21281;SDS011;10800;53.096;18.328;2023-08-08T10:16:32;2.60;;;1.20;;
21281;SDS011;10800;53.096;18.328;2023-08-08T10:21:45;1.77;;;1.00;;
21281;SDS011;10800;53.096;18.328;2023-08-08T10:26:59;3.87;;;1.20;;
21281;SDS011;10800;53.096;18.328;2023-08-08T10:32:06;2.00;;;1.17;;
21281;SDS011;10800;53.096;18.328;2023-08-08T10:37:13;2.50;;;1.00;;
21281;SDS011;10800;53.096;18.328;2023-08-08T10:42:28;1.07;;;0.73;;
21281;SDS011;10800;53.096;18.328;2023-08-08T10:47:37;1.77;;;1.07;;
21281;SDS011;10800;53.096;18.328;2023-08-08T10:52:54;1.67;;;1.30;;
21281;SDS011;10800;53.096;18.328;2023-08-08T10:58:13;2.67;;;0.93;;
21281;SDS011;10800;53.096;18.328;2023-08-08T11:03:30;0.87;;;0.70;;
21281;SDS011;10800;53.096;18.328;2023-08-08T11:08:40;1.60;;;0.67;;
21281;SDS011;10800;53.096;18.328;2023-08-08T11:13:47;3.83;;;1.43;;
21281;SDS011;10800;53.096;18.328;2023-08-08T11:18:55;1.10;;;0.70;;
21281;SDS011;10800;53.096;18.328;2023-08-08T11:24:03;1.90;;;0.70;;
21281;SDS011;10800;53.096;18.328;2023-08-08T11:29:10;2.33;;;1.23;;
21281;SDS011;10800;53.096;18.328;2023-08-08T11:34:15;1.00;;;0.80;;
21281;SDS011;10800;53.096;18.328;2023-08-08T11:39:22;3.20;;;0.70;;
21281;SDS011;10800;53.096;18.328;2023-08-08T11:44:27;1.57;;;0.90;;
21281;SDS011;10800;53.096;18.328;2023-08-08T11:49:43;1.57;;;0.70;;
21281;SDS011;10800;53.096;18.328;2023-08-08T11:54:51;1.40;;;0.73;;
21281;SDS011;10800;53.096;18.328;2023-08-08T11:59:56;2.07;;;0.90;;
21281;SDS011;10800;53.096;18.328;2023-08-08T12:05:09;1.27;;;0.67;;
21281;SDS011;10800;53.096;18.328;2023-08-08T12:10:25;2.13;;;0.90;;
21281;SDS011;10800;53.096;18.328;2023-08-08T12:15:35;1.95;;;1.32;;
21281;SDS011;10800;53.096;18.328;2023-08-08T12:20:42;1.43;;;0.80;;
21281;SDS011;10800;53.096;18.328;2023-08-08T12:25:48;1.77;;;0.80;;
21281;SDS011;10800;53.096;18.328;2023-08-08T12:30:54;1.27;;;0.80;;
21281;SDS011;10800;53.096;18.328;2023-08-08T12:36:00;1.20;;;0.57;;
21281;SDS011;10800;53.096;18.328;2023-08-08T12:41:06;0.73;;;0.70;;
21281;SDS011;10800;53.096;18.328;2023-08-08T12:46:12;1.23;;;0.87;;
21281;SDS011;10800;53.096;18.328;2023-08-08T12:51:20;3.87;;;0.63;;
21281;SDS011;10800;53.096;18.328;2023-08-08T12:56:25;4.80;;;0.80;;
21281;SDS011;10800;53.096;18.328;2023-08-08T13:01:32;1.13;;;0.40;;
21281;SDS011;10800;53.096;18.328;2023-08-08T13:06:37;0.70;;;0.50;;
21281;SDS011;10800;53.096;18.328;2023-08-08T13:17:36;0.67;;;0.47;;
21281;SDS011;10800;53.096;18.328;2023-08-08T13:22:45;2.60;;;0.40;;
21281;SDS011;10800;53.096;18.328;2023-08-08T13:27:57;3.17;;;0.53;;
21281;SDS011;10800;53.096;18.328;2023-08-08T13:33:03;0.73;;;0.40;;
21281;SDS011;10800;53.096;18.328;2023-08-08T13:38:09;1.33;;;0.50;;
21281;SDS011;10800;53.096;18.328;2023-08-08T13:43:36;1.07;;;0.97;;
21281;SDS011;10800;53.096;18.328;2023-08-08T13:49:07;1.40;;;0.70;;
21281;SDS011;10800;53.096;18.328;2023-08-08T13:54:15;2.23;;;0.80;;
21281;SDS011;10800;53.096;18.328;2023-08-08T13:59:40;2.63;;;0.83;;
21281;SDS011;10800;53.096;18.328;2023-08-08T14:04:47;2.90;;;1.27;;
21281;SDS011;10800;53.096;18.328;2023-08-08T14:09:53;4.07;;;1.20;;
21281;SDS011;10800;53.096;18.328;2023-08-08T14:15:01;0.87;;;0.67;;
21281;SDS011;10800;53.096;18.328;2023-08-08T14:20:30;1.27;;;0.70;;
21281;SDS011;10800;53.096;18.328;2023-08-08T14:31:08;2.20;;;0.63;;
21281;SDS011;10800;53.096;18.328;2023-08-08T14:36:16;0.83;;;0.70;;
21281;SDS011;10800;53.096;18.328;2023-08-08T14:41:28;1.37;;;0.90;;
21281;SDS011;10800;53.096;18.328;2023-08-08T14:46:42;3.90;;;1.50;;
21281;SDS011;10800;53.096;18.328;2023-08-08T14:51:52;2.10;;;0.80;;
21281;SDS011;10800;53.096;18.328;2023-08-08T14:57:09;1.47;;;0.73;;
21281;SDS011;10800;53.096;18.328;2023-08-08T15:08:26;2.97;;;0.60;;
21281;SDS011;10800;53.096;18.328;2023-08-08T15:13:34;0.50;;;0.50;;
21281;SDS011;10800;53.096;18.328;2023-08-08T15:18:59;0.77;;;0.60;;
21281;SDS011;10800;53.096;18.328;2023-08-08T15:24:07;0.93;;;0.50;;
21281;SDS011;10800;53.096;18.328;2023-08-08T15:29:18;1.50;;;0.60;;
21281;SDS011;10800;53.096;18.328;2023-08-08T15:34:31;4.50;;;0.77;;
21281;SDS011;10800;53.096;18.328;2023-08-08T15:39:44;1.83;;;0.60;;
21281;SDS011;10800;53.096;18.328;2023-08-08T15:44:52;1.27;;;0.67;;
21281;SDS011;10800;53.096;18.328;2023-08-08T15:56:08;1.07;;;0.70;;
21281;SDS011;10800;53.096;18.328;2023-08-08T16:01:23;1.20;;;0.70;;
21281;SDS011;10800;53.096;18.328;2023-08-08T16:06:53;0.97;;;0.60;;
21281;SDS011;10800;53.096;18.328;2023-08-08T16:12:32;3.67;;;0.90;;
21281;SDS011;10800;53.096;18.328;2023-08-08T16:23:37;1.23;;;0.87;;
21281;SDS011;10800;53.096;18.328;2023-08-08T16:28:45;3.03;;;1.10;;
21281;SDS011;10800;53.096;18.328;2023-08-08T16:34:11;2.43;;;1.60;;
21281;SDS011;10800;53.096;18.328;2023-08-08T16:39:23;1.93;;;1.43;;
21281;SDS011;10800;53.096;18.328;2023-08-08T16:44:50;4.03;;;0.90;;
21281;SDS011;10800;53.096;18.328;2023-08-08T17:07:24;1.80;;;1.13;;
21281;SDS011;10800;53.096;18.328;2023-08-08T17:12:48;1.93;;;1.07;;
21281;SDS011;10800;53.096;18.328;2023-08-08T17:18:14;1.03;;;0.80;;
21281;SDS011;10800;53.096;18.328;2023-08-08T17:23:51;1.00;;;0.60;;
21281;SDS011;10800;53.096;18.328;2023-08-08T17:29:00;1.60;;;0.93;;
21281;SDS011;10800;53.096;18.328;2023-08-08T17:40:20;0.93;;;0.70;;
21281;SDS011;10800;53.096;18.328;2023-08-08T17:51:24;2.10;;;0.70;;
21281;SDS011;10800;53.096;18.328;2023-08-08T18:02:38;1.80;;;1.00;;
21281;SDS011;10800;53.096;18.328;2023-08-08T18:08:05;1.40;;;0.70;;
21281;SDS011;10800;53.096;18.328;2023-08-08T18:13:21;1.67;;;1.17;;
21281;SDS011;10800;53.096;18.328;2023-08-08T18:18:44;1.00;;;0.90;;
21281;SDS011;10800;53.096;18.328;2023-08-08T18:23:57;1.20;;;0.90;;
21281;SDS011;10800;53.096;18.328;2023-08-08T18:35:02;1.30;;;0.90;;
21281;SDS011;10800;53.096;18.328;2023-08-08T18:40:11;1.20;;;1.10;;
21281;SDS011;10800;53.096;18.328;2023-08-08T18:45:38;2.03;;;0.87;;
21281;SDS011;10800;53.096;18.328;2023-08-08T18:51:06;2.03;;;1.30;;
21281;SDS011;10800;53.096;18.328;2023-08-08T18:56:18;3.43;;;1.20;;
21281;SDS011;10800;53.096;18.328;2023-08-08T19:06:54;1.47;;;1.37;;
21281;SDS011;10800;53.096;18.328;2023-08-08T19:17:56;2.07;;;1.40;;
21281;SDS011;10800;53.096;18.328;2023-08-08T19:34:01;1.63;;;1.10;;
21281;SDS011;10800;53.096;18.328;2023-08-08T19:39:35;1.40;;;0.93;;
21281;SDS011;10800;53.096;18.328;2023-08-08T19:50:07;2.50;;;1.53;;
21281;SDS011;10800;53.096;18.328;2023-08-08T20:01:00;3.07;;;1.67;;
21281;SDS011;10800;53.096;18.328;2023-08-08T20:06:14;3.57;;;1.70;;
21281;SDS011;10800;53.096;18.328;2023-08-08T20:11:23;4.10;;;1.40;;
21281;SDS011;10800;53.096;18.328;2023-08-08T20:16:36;6.00;;;1.90;;
21281;SDS011;10800;53.096;18.328;2023-08-08T20:21:49;2.27;;;1.67;;
21281;SDS011;10800;53.096;18.328;2023-08-08T20:26:56;3.00;;;1.63;;
21281;SDS011;10800;53.096;18.328;2023-08-08T20:32:01;3.97;;;2.10;;
21281;SDS011;10800;53.096;18.328;2023-08-08T20:37:08;2.03;;;1.83;;
21281;SDS011;10800;53.096;18.328;2023-08-08T20:47:50;4.00;;;1.90;;
21281;SDS011;10800;53.096;18.328;2023-08-08T21:03:49;3.00;;;1.50;;
21281;SDS011;10800;53.096;18.328;2023-08-08T21:09:16;2.53;;;1.63;;
21281;SDS011;10800;53.096;18.328;2023-08-08T21:14:49;10.53;;;2.43;;
21281;SDS011;10800;53.096;18.328;2023-08-08T21:19:59;3.80;;;1.43;;
21281;SDS011;10800;53.096;18.328;2023-08-08T21:25:33;2.43;;;1.80;;
21281;SDS011;10800;53.096;18.328;2023-08-08T21:47:37;1.73;;;1.30;;
21281;SDS011;10800;53.096;18.328;2023-08-08T21:58:17;7.50;;;1.40;;
21281;SDS011;10800;53.096;18.328;2023-08-08T22:14:33;3.03;;;1.63;;
21281;SDS011;10800;53.096;18.328;2023-08-08T22:19:47;2.50;;;1.73;;
21281;SDS011;10800;53.096;18.328;2023-08-08T22:24:58;3.23;;;1.67;;
21281;SDS011;10800;53.096;18.328;2023-08-08T22:30:06;2.53;;;1.73;;
21281;SDS011;10800;53.096;18.328;2023-08-08T22:35:15;4.90;;;1.60;;
21281;SDS011;10800;53.096;18.328;2023-08-08T22:40:25;3.13;;;1.60;;
21281;SDS011;10800;53.096;18.328;2023-08-08T22:45:38;3.93;;;1.83;;
21281;SDS011;10800;53.096;18.328;2023-08-08T22:50:49;4.77;;;2.00;;
21281;SDS011;10800;53.096;18.328;2023-08-08T22:55:57;2.80;;;2.03;;
21281;SDS011;10800;53.096;18.328;2023-08-08T23:01:03;3.37;;;1.87;;
21281;SDS011;10800;53.096;18.328;2023-08-08T23:06:13;2.70;;;1.50;;
21281;SDS011;10800;53.096;18.328;2023-08-08T23:11:19;4.57;;;1.90;;
21281;SDS011;10800;53.096;18.328;2023-08-08T23:16:28;3.20;;;1.70;;
21281;SDS011;10800;53.096;18.328;2023-08-08T23:21:36;6.77;;;1.73;;
21281;SDS011;10800;53.096;18.328;2023-08-08T23:26:43;4.60;;;1.60;;
21281;SDS011;10800;53.096;18.328;2023-08-08T23:31:51;2.63;;;1.50;;
21281;SDS011;10800;53.096;18.328;2023-08-08T23:36:57;2.33;;;1.80;;
21281;SDS011;10800;53.096;18.328;2023-08-08T23:42:05;2.00;;;1.73;;
21281;SDS011;10800;53.096;18.328;2023-08-08T23:47:15;2.87;;;1.67;;
21281;SDS011;10800;53.096;18.328;2023-08-08T23:52:23;1.80;;;1.47;;
21281;SDS011;10800;53.096;18.328;2023-08-08T23:57:37;15.00;;;1.87;;
